createdAt,value
2018-06-07T00:02:02.841Z,101338.07
2018-06-07T00:04:32.541Z,101337.33
2018-06-07T00:07:01.529Z,101343.50
2018-06-07T00:09:31.084Z,101354.02
2018-06-07T00:12:00.094Z,101357.20
2018-06-07T00:14:29.080Z,101356.73
2018-06-07T00:16:58.119Z,101351.54
2018-06-07T00:19:27.148Z,101348.81
2018-06-07T00:21:56.243Z,101346.72
2018-06-07T00:24:25.547Z,101356.23
2018-06-07T00:26:55.498Z,101358.31
2018-06-07T00:29:24.505Z,101364.21
2018-06-07T00:31:53.519Z,101353.12
2018-06-07T00:34:22.902Z,101361.90
2018-06-07T00:36:51.981Z,101367.45
2018-06-07T00:39:20.962Z,101362.41
2018-06-07T00:41:50.257Z,101370.98
2018-06-07T00:44:19.256Z,101366.91
2018-06-07T00:46:49.032Z,101367.14
2018-06-07T00:49:18.165Z,101364.06
2018-06-07T00:51:47.182Z,101365.55
2018-06-07T00:54:16.192Z,101362.79
2018-06-07T00:56:56.687Z,101369.31
2018-06-07T00:59:25.725Z,101372.02
2018-06-07T01:01:54.829Z,101369.42
2018-06-07T01:04:23.816Z,101367.83
2018-06-07T01:06:52.853Z,101367.44
2018-06-07T01:09:21.902Z,101370.03
2018-06-07T01:11:50.932Z,101365.34
2018-06-07T01:14:19.885Z,101362.84
2018-06-07T01:16:48.975Z,101356.89
2018-06-07T01:19:17.989Z,101359.66
2018-06-07T01:21:47.019Z,101359.88
2018-06-07T01:24:16.475Z,101366.05
2018-06-07T01:26:45.443Z,101360.47
2018-06-07T01:29:27.171Z,101359.98
2018-06-07T01:34:12.515Z,101363.55
2018-06-07T01:36:41.652Z,101363.04
2018-06-07T01:39:12.138Z,101367.48
2018-06-07T01:41:41.155Z,101366.13
2018-06-07T01:44:10.298Z,101366.45
2018-06-07T01:46:39.537Z,101364.12
2018-06-07T01:49:08.621Z,101363.43
2018-06-07T01:51:37.613Z,101365.04
2018-06-07T01:54:06.703Z,101364.80
2018-06-07T01:56:35.759Z,101362.33
2018-06-07T01:59:04.784Z,101365.93
2018-06-07T02:01:34.131Z,101368.34
2018-06-07T02:04:03.193Z,101364.90
2018-06-07T02:06:34.177Z,101367.47
2018-06-07T02:09:03.385Z,101368.97
2018-06-07T02:11:32.444Z,101369.55
2018-06-07T02:14:01.479Z,101364.05
2018-06-07T02:16:30.510Z,101359.23
2018-06-07T02:18:59.499Z,101362.72
2018-06-07T02:21:28.489Z,101348.72
2018-06-07T02:23:57.488Z,101350.23
2018-06-07T02:26:26.505Z,101346.28
2018-06-07T02:28:55.532Z,101343.67
2018-06-07T02:31:24.545Z,101332.70
2018-06-07T02:33:53.549Z,101338.24
2018-06-07T02:36:22.859Z,101346.02
2018-06-07T02:38:51.949Z,101344.90
2018-06-07T02:41:20.924Z,101346.84
2018-06-07T02:43:50.041Z,101346.50
2018-06-07T02:46:19.043Z,101350.97
2018-06-07T02:48:48.043Z,101347.35
2018-06-07T02:51:17.063Z,101346.37
2018-06-07T02:53:46.107Z,101345.45
2018-06-07T02:56:15.624Z,101348.09
2018-06-07T02:58:50.273Z,101349.45
2018-06-07T03:01:19.306Z,101346.90
2018-06-07T03:03:48.969Z,101347.17
2018-06-07T03:06:17.987Z,101345.98
2018-06-07T03:08:47.062Z,101342.01
2018-06-07T03:11:16.063Z,101345.70
2018-06-07T03:13:45.189Z,101342.14
2018-06-07T03:16:14.287Z,101347.10
2018-06-07T03:18:43.329Z,101339.16
2018-06-07T03:21:12.343Z,101336.67
2018-06-07T03:23:41.406Z,101334.87
2018-06-07T03:26:10.403Z,101338.53
2018-06-07T03:28:39.403Z,101337.70
2018-06-07T03:31:08.422Z,101335.27
2018-06-07T03:33:37.407Z,101336.55
2018-06-07T03:36:06.431Z,101331.99
2018-06-07T03:38:35.445Z,101329.34
2018-06-07T03:41:04.451Z,101334.50
2018-06-07T03:43:33.480Z,101334.39
2018-06-07T03:46:02.487Z,101336.52
2018-06-07T03:48:31.464Z,101340.75
2018-06-07T03:51:00.467Z,101347.03
2018-06-07T03:53:29.457Z,101353.94
2018-06-07T03:55:58.473Z,101357.41
2018-06-07T03:58:27.455Z,101361.02
2018-06-07T04:00:56.499Z,101363.00
2018-06-07T04:03:25.597Z,101361.14
2018-06-07T04:05:54.593Z,101356.45
2018-06-07T04:08:23.634Z,101368.28
2018-06-07T04:10:52.871Z,101364.45
2018-06-07T04:13:21.873Z,101365.80
2018-06-07T04:15:50.884Z,101377.32
2018-06-07T04:18:20.092Z,101377.67
2018-06-07T04:20:49.089Z,101379.55
2018-06-07T04:23:19.413Z,101388.20
2018-06-07T04:25:54.867Z,101389.89
2018-06-07T04:28:24.116Z,101390.88
2018-06-07T04:30:53.155Z,101395.70
2018-06-07T04:33:22.241Z,101394.70
2018-06-07T04:35:56.799Z,101402.52
2018-06-07T04:38:31.357Z,101401.17
2018-06-07T04:41:00.368Z,101406.22
2018-06-07T04:43:29.365Z,101407.47
2018-06-07T04:45:58.488Z,101406.37
2018-06-07T04:48:27.506Z,101396.25
2018-06-07T04:50:56.608Z,101405.92
2018-06-07T04:53:25.623Z,101410.46
2018-06-07T04:55:54.700Z,101412.91
2018-06-07T04:58:23.806Z,101410.69
2018-06-07T05:00:52.915Z,101419.13
2018-06-07T05:03:21.984Z,101418.03
2018-06-07T05:05:56.562Z,101416.56
2018-06-07T05:08:25.584Z,101421.61
2018-06-07T05:10:54.601Z,101424.59
2018-06-07T05:13:23.603Z,101429.41
2018-06-07T05:15:52.632Z,101434.58
2018-06-07T05:18:21.704Z,101427.20
2018-06-07T05:20:50.797Z,101431.62
2018-06-07T05:23:19.828Z,101437.09
2018-06-07T05:25:48.860Z,101436.59
2018-06-07T05:28:17.925Z,101429.66
2018-06-07T05:30:46.942Z,101441.16
2018-06-07T05:33:15.960Z,101444.50
2018-06-07T05:35:45.019Z,101439.28
2018-06-07T05:38:14.024Z,101439.17
2018-06-07T05:40:43.044Z,101443.84
2018-06-07T05:43:12.193Z,101446.80
2018-06-07T05:45:41.268Z,101441.23
2018-06-07T05:48:10.325Z,101442.26
2018-06-07T05:50:39.447Z,101442.23
2018-06-07T05:53:08.460Z,101449.77
2018-06-07T05:55:37.484Z,101449.02
2018-06-07T05:58:06.550Z,101447.65
2018-06-07T06:00:35.624Z,101454.94
2018-06-07T06:03:04.683Z,101452.95
2018-06-07T06:05:33.729Z,101445.75
2018-06-07T06:08:02.948Z,101454.40
2018-06-07T06:10:31.956Z,101446.61
2018-06-07T06:13:00.964Z,101445.98
2018-06-07T06:15:36.014Z,101444.58
2018-06-07T06:18:11.064Z,101436.88
2018-06-07T06:20:40.072Z,101450.45
2018-06-07T06:23:09.506Z,101440.75
2018-06-07T06:25:38.536Z,101440.13
2018-06-07T06:28:07.582Z,101441.83
2018-06-07T06:30:36.576Z,101437.02
2018-06-07T06:33:05.586Z,101439.80
2018-06-07T06:35:35.544Z,101437.20
2018-06-07T06:38:36.685Z,101446.33
2018-06-07T06:41:05.712Z,101440.26
2018-06-07T06:43:34.764Z,101447.89
2018-06-07T06:46:03.928Z,101449.62
2018-06-07T06:48:33.352Z,101440.89
2018-06-07T06:51:02.394Z,101440.85
2018-06-07T06:53:31.406Z,101440.55
2018-06-07T06:56:00.446Z,101444.85
2018-06-07T06:58:29.684Z,101449.00
2018-06-07T07:00:58.689Z,101453.95
2018-06-07T07:03:27.808Z,101456.81
2018-06-07T07:05:56.906Z,101460.92
2018-06-07T07:08:25.888Z,101463.53
2018-06-07T07:10:55.001Z,101466.80
2018-06-07T07:13:24.020Z,101450.55
2018-06-07T07:15:53.043Z,101459.03
2018-06-07T07:18:22.271Z,101457.37
2018-06-07T07:20:51.355Z,101453.47
2018-06-07T07:23:20.380Z,101457.59
2018-06-07T07:25:49.422Z,101449.86
2018-06-07T07:28:18.477Z,101453.38
2018-06-07T07:30:47.550Z,101454.52
2018-06-07T07:33:16.544Z,101455.94
2018-06-07T07:35:45.564Z,101456.41
2018-06-07T07:38:14.554Z,101465.64
2018-06-07T07:40:43.724Z,101468.63
2018-06-07T07:43:12.706Z,101469.78
2018-06-07T07:45:42.036Z,101472.31
2018-06-07T07:48:11.068Z,101477.55
2018-06-07T07:50:40.096Z,101480.36
2018-06-07T07:53:09.120Z,101477.73
2018-06-07T07:55:38.304Z,101476.18
2018-06-07T07:58:11.222Z,101482.75
2018-06-07T08:00:40.258Z,101474.26
2018-06-07T08:03:09.296Z,101480.39
2018-06-07T08:05:39.266Z,101483.84
2018-06-07T08:08:13.720Z,101482.70
2018-06-07T08:10:42.952Z,101473.91
2018-06-07T08:13:12.071Z,101483.73
2018-06-07T08:15:41.126Z,101479.00
2018-06-07T08:18:10.168Z,101481.80
2018-06-07T08:20:39.184Z,101487.34
2018-06-07T08:23:08.275Z,101482.13
2018-06-07T08:25:37.348Z,101494.06
2018-06-07T08:28:06.418Z,101488.84
2018-06-07T08:30:35.458Z,101495.78
2018-06-07T08:33:04.440Z,101493.27
2018-06-07T08:35:33.522Z,101497.80
2018-06-07T08:38:02.594Z,101503.15
2018-06-07T08:40:31.812Z,101508.41
2018-06-07T08:43:00.824Z,101506.52
2018-06-07T08:45:30.792Z,101509.77
2018-06-07T08:47:59.843Z,101514.02
2018-06-07T08:50:29.042Z,101516.27
2018-06-07T08:52:58.088Z,101523.00
2018-06-07T08:55:27.605Z,101519.17
2018-06-07T08:57:56.615Z,101527.22
2018-06-07T09:00:25.711Z,101519.56
2018-06-07T09:02:54.760Z,101520.09
2018-06-07T09:05:23.881Z,101520.22
2018-06-07T09:07:52.883Z,101520.89
2018-06-07T09:10:21.993Z,101523.02
2018-06-07T09:12:51.030Z,101527.21
2018-06-07T09:15:20.037Z,101523.96
2018-06-07T09:17:49.633Z,101531.92
2018-06-07T09:20:18.645Z,101524.09
2018-06-07T09:22:47.638Z,101528.28
2018-06-07T09:25:16.649Z,101528.66
2018-06-07T09:27:45.897Z,101535.70
2018-06-07T09:30:14.927Z,101531.27
2018-06-07T09:32:44.333Z,101534.48
2018-06-07T09:35:13.347Z,101530.88
2018-06-07T09:37:42.388Z,101532.91
2018-06-07T09:40:11.439Z,101530.53
2018-06-07T09:42:40.447Z,101533.67
2018-06-07T09:45:15.025Z,101528.27
2018-06-07T09:47:44.047Z,101526.74
2018-06-07T09:50:14.551Z,101528.03
2018-06-07T09:52:44.650Z,101534.41
2018-06-07T09:55:14.064Z,101533.33
2018-06-07T09:57:43.207Z,101530.95
2018-06-07T10:00:17.720Z,101526.23
2018-06-07T10:02:47.087Z,101530.73
2018-06-07T10:05:16.170Z,101528.31
2018-06-07T10:07:45.193Z,101523.19
2018-06-07T10:10:14.177Z,101517.86
2018-06-07T10:12:43.430Z,101521.14
2018-06-07T10:15:12.589Z,101517.99
2018-06-07T10:17:41.715Z,101518.53
2018-06-07T10:20:10.779Z,101520.09
2018-06-07T10:22:39.847Z,101517.69
2018-06-07T10:25:09.317Z,101518.69
2018-06-07T10:27:38.307Z,101519.70
2018-06-07T10:30:07.329Z,101516.59
2018-06-07T10:32:36.316Z,101512.48
2018-06-07T10:35:05.419Z,101516.98
2018-06-07T10:37:34.496Z,101514.66
2018-06-07T10:40:03.532Z,101511.27
2018-06-07T10:42:32.592Z,101514.55
2018-06-07T10:45:01.703Z,101519.99
2018-06-07T10:47:30.815Z,101512.72
2018-06-07T10:49:59.884Z,101521.83
2018-06-07T10:52:28.884Z,101519.19
2018-06-07T10:54:57.913Z,101519.47
2018-06-07T10:57:27.071Z,101524.02
2018-06-07T11:00:01.872Z,101518.72
2018-06-07T11:02:36.424Z,101513.50
2018-06-07T11:05:05.543Z,101509.06
2018-06-07T11:07:34.549Z,101513.77
2018-06-07T11:10:04.368Z,101512.13
2018-06-07T11:12:33.575Z,101516.42
2018-06-07T11:15:02.697Z,101516.42
2018-06-07T11:17:31.861Z,101517.11
2018-06-07T11:20:00.969Z,101508.73
2018-06-07T11:22:29.984Z,101513.67
2018-06-07T11:25:05.087Z,101510.93
2018-06-07T11:27:34.995Z,101512.01
2018-06-07T11:30:05.058Z,101509.66
2018-06-07T11:32:34.079Z,101510.08
2018-06-07T11:35:03.114Z,101499.97
2018-06-07T11:37:32.323Z,101499.36
2018-06-07T11:40:01.414Z,101497.83
2018-06-07T11:42:30.395Z,101496.23
2018-06-07T11:45:00.053Z,101491.81
2018-06-07T11:47:29.443Z,101493.36
2018-06-07T11:49:58.556Z,101494.95
2018-06-07T11:52:28.727Z,101495.89
2018-06-07T11:54:57.744Z,101489.19
2018-06-07T11:57:26.711Z,101481.84
2018-06-07T11:59:56.185Z,101488.88
2018-06-07T12:02:25.265Z,101483.39
2018-06-07T12:04:54.328Z,101484.27
2018-06-07T12:07:23.325Z,101482.79
2018-06-07T12:09:52.324Z,101483.17
2018-06-07T12:12:21.358Z,101483.85
2018-06-07T12:14:50.704Z,101473.54
2018-06-07T12:17:25.314Z,101474.80
2018-06-07T12:19:54.340Z,101480.94
2018-06-07T12:22:23.490Z,101479.05
2018-06-07T12:24:52.483Z,101472.86
2018-06-07T12:27:22.113Z,101468.38
2018-06-07T12:29:51.170Z,101470.79
2018-06-07T12:32:20.172Z,101469.48
2018-06-07T12:34:49.153Z,101467.95
2018-06-07T12:37:18.452Z,101462.09
2018-06-07T12:39:48.149Z,101463.16
2018-06-07T12:42:18.108Z,101466.34
2018-06-07T12:44:47.144Z,101469.42
2018-06-07T12:47:16.281Z,101459.44
2018-06-07T12:49:50.885Z,101457.42
2018-06-07T13:05:19.931Z,101453.84
2018-06-07T13:07:48.925Z,101454.91
2018-06-07T13:10:17.914Z,101452.33
2018-06-07T13:12:47.153Z,101457.05
2018-06-07T13:15:16.213Z,101456.00
2018-06-07T13:17:45.201Z,101443.93
2018-06-07T13:20:14.455Z,101449.66
2018-06-07T13:22:47.257Z,101451.92
2018-06-07T13:25:16.291Z,101447.45
2018-06-07T13:27:45.309Z,101447.48
2018-06-07T13:30:14.521Z,101453.66
2018-06-07T13:32:45.686Z,101451.97
2018-06-07T13:35:14.684Z,101446.30
2018-06-07T13:37:43.771Z,101441.84
2018-06-07T13:40:13.575Z,101444.75
2018-06-07T13:42:44.073Z,101439.45
2018-06-07T13:45:13.155Z,101446.33
2018-06-07T13:47:42.330Z,101443.05
2018-06-07T13:50:11.381Z,101439.97
2018-06-07T13:52:40.418Z,101442.70
2018-06-07T13:55:09.521Z,101438.58
2018-06-07T13:57:38.600Z,101441.68
2018-06-07T14:00:07.626Z,101445.61
2018-06-07T14:02:36.659Z,101448.52
2018-06-07T14:05:05.839Z,101446.13
2018-06-07T14:07:34.809Z,101446.27
2018-06-07T14:10:03.901Z,101453.45
2018-06-07T14:12:38.517Z,101458.90
2018-06-07T14:15:08.545Z,101457.64
2018-06-07T14:17:37.602Z,101460.45
2018-06-07T14:20:06.545Z,101465.52
2018-06-07T14:22:35.615Z,101471.15
2018-06-07T14:25:05.205Z,101475.38
2018-06-07T14:27:35.030Z,101475.95
2018-06-07T14:30:04.123Z,101473.72
2018-06-07T14:32:33.111Z,101478.16
2018-06-07T14:35:02.106Z,101480.98
2018-06-07T14:37:31.111Z,101481.59
2018-06-07T14:40:00.108Z,101481.19
2018-06-07T14:42:30.052Z,101482.05
2018-06-07T14:44:59.092Z,101477.86
2018-06-07T14:47:28.084Z,101480.92
2018-06-07T14:49:57.413Z,101483.52
2018-06-07T14:52:26.404Z,101484.43
2018-06-07T14:54:55.448Z,101489.61
2018-06-07T14:57:24.483Z,101487.78
2018-06-07T14:59:53.497Z,101488.48
2018-06-07T15:02:22.526Z,101480.42
2018-06-07T15:04:51.704Z,101483.78
2018-06-07T15:07:20.724Z,101487.07
2018-06-07T15:09:49.747Z,101490.66
2018-06-07T15:12:18.740Z,101486.27
2018-06-07T15:14:47.745Z,101485.36
2018-06-07T15:17:16.794Z,101488.66
2018-06-07T15:19:45.734Z,101481.91
2018-06-07T15:22:15.212Z,101486.33
2018-06-07T15:24:44.248Z,101489.14
2018-06-07T15:27:13.348Z,101492.37
2018-06-07T15:29:42.518Z,101487.55
2018-06-07T15:32:11.519Z,101484.30
2018-06-07T15:34:40.588Z,101486.69
2018-06-07T15:37:09.684Z,101476.21
2018-06-07T15:39:38.715Z,101480.52
2018-06-07T15:42:07.805Z,101476.86
2018-06-07T15:44:37.432Z,101472.12
2018-06-07T15:47:06.460Z,101483.38
2018-06-07T15:49:35.480Z,101474.52
2018-06-07T15:52:04.554Z,101491.14
2018-06-07T15:54:33.940Z,101475.46
2018-06-07T15:57:02.984Z,101487.72
2018-06-07T15:59:32.361Z,101486.16
2018-06-07T16:02:01.379Z,101487.87
2018-06-07T16:04:30.428Z,101489.09
2018-06-07T16:06:59.450Z,101504.78
2018-06-07T16:09:28.487Z,101494.17
2018-06-07T16:11:58.770Z,101502.50
2018-06-07T16:14:27.772Z,101511.41
2018-06-07T16:16:56.909Z,101508.75
2018-06-07T16:19:25.929Z,101505.88
2018-06-07T16:21:54.927Z,101504.09
2018-06-07T16:37:23.967Z,101498.69
2018-06-07T16:39:53.021Z,101506.05
2018-06-07T16:42:22.037Z,101491.81
2018-06-07T16:44:51.747Z,101499.76
2018-06-07T16:47:20.849Z,101501.53
2018-06-07T16:49:49.867Z,101496.66
2018-06-07T16:52:18.879Z,101496.83
2018-06-07T16:54:48.080Z,101493.90
2018-06-07T16:57:17.103Z,101498.29
2018-06-07T16:59:49.689Z,101492.08
2018-06-07T17:02:18.697Z,101482.45
2018-06-07T17:04:48.172Z,101481.91
2018-06-07T17:07:17.223Z,101490.30
2018-06-07T17:09:46.260Z,101491.44
2018-06-07T17:12:15.327Z,101495.02
2018-06-07T17:14:44.451Z,101491.78
2018-06-07T17:17:13.541Z,101495.05
2018-06-07T17:19:42.677Z,101490.98
2018-06-07T17:22:11.731Z,101488.73
2018-06-07T17:24:40.824Z,101486.25
2018-06-07T17:27:09.929Z,101488.80
2018-06-07T17:29:38.950Z,101482.02
2018-06-07T17:32:07.945Z,101487.66
2018-06-07T17:34:36.948Z,101489.57
2018-06-07T17:37:06.077Z,101485.56
2018-06-07T17:39:35.107Z,101485.39
2018-06-07T17:42:04.904Z,101490.16
2018-06-07T17:44:33.969Z,101486.16
2018-06-07T17:47:03.031Z,101488.72
2018-06-07T17:49:32.076Z,101495.53
2018-06-07T17:52:01.203Z,101487.56
2018-06-07T17:54:30.130Z,101487.82
2018-06-07T17:56:59.128Z,101488.55
2018-06-07T17:59:28.203Z,101488.80
2018-06-07T18:01:57.278Z,101487.70
2018-06-07T18:04:26.663Z,101489.70
2018-06-07T18:06:55.717Z,101489.88
2018-06-07T18:09:24.750Z,101496.34
2018-06-07T18:11:53.782Z,101510.20
2018-06-07T18:14:22.815Z,101500.05
2018-06-07T18:16:51.864Z,101502.34
2018-06-07T18:19:20.981Z,101508.48
2018-06-07T18:21:50.036Z,101512.67
2018-06-07T18:24:19.427Z,101520.45
2018-06-07T18:26:48.512Z,101516.53
2018-06-07T18:29:18.639Z,101516.38
2018-06-07T18:31:49.493Z,101513.56
2018-06-07T18:34:18.568Z,101519.67
2018-06-07T18:36:47.540Z,101521.06
2018-06-07T18:39:16.551Z,101522.98
2018-06-07T18:41:45.574Z,101528.39
2018-06-07T18:44:15.181Z,101523.34
2018-06-07T18:46:44.265Z,101522.09
2018-06-07T18:49:13.338Z,101530.27
2018-06-07T18:51:47.850Z,101528.92
2018-06-07T18:54:17.082Z,101523.48
2018-06-07T18:56:46.108Z,101527.42
2018-06-07T18:59:15.210Z,101524.69
2018-06-07T19:01:44.193Z,101515.16
2018-06-07T19:04:13.234Z,101514.58
2018-06-07T19:06:42.224Z,101519.30
2018-06-07T19:09:16.617Z,101511.02
2018-06-07T19:11:45.721Z,101510.38
2018-06-07T19:14:19.963Z,101514.48
2018-06-07T19:16:49.016Z,101512.63
2018-06-07T19:19:23.540Z,101515.45
2018-06-07T19:21:52.611Z,101511.27
2018-06-07T19:24:21.605Z,101496.88
2018-06-07T19:26:56.105Z,101502.43
2018-06-07T19:29:25.128Z,101498.34
2018-06-07T19:31:59.413Z,101491.31
2018-06-07T19:34:33.730Z,101496.02
2018-06-07T19:37:02.832Z,101499.19
2018-06-07T19:39:37.606Z,101495.90
2018-06-07T19:42:10.045Z,101500.80
2018-06-07T19:44:39.364Z,101502.43
2018-06-07T19:47:08.388Z,101509.87
2018-06-07T19:49:37.470Z,101514.54
2018-06-07T19:52:06.565Z,101512.63
2018-06-07T19:54:35.732Z,101523.61
2018-06-07T19:57:05.036Z,101514.81
2018-06-07T19:59:34.312Z,101517.38
2018-06-07T20:02:04.473Z,101524.53
2018-06-07T20:04:33.580Z,101516.06
2018-06-07T20:07:02.584Z,101521.56
2018-06-07T20:12:23.766Z,101527.11
2018-06-07T20:14:52.865Z,101530.25
2018-06-07T20:17:21.956Z,101531.13
2018-06-07T20:19:50.951Z,101534.59
2018-06-07T20:22:20.352Z,101536.86
2018-06-07T20:24:49.648Z,101526.16
2018-06-07T20:27:18.668Z,101528.14
2018-06-07T20:29:47.685Z,101535.97
2018-06-07T20:32:16.686Z,101540.89
2018-06-07T20:34:45.850Z,101536.30
2018-06-07T20:37:14.970Z,101533.59
2018-06-07T20:39:44.099Z,101535.30
2018-06-07T20:42:13.120Z,101535.30
2018-06-07T20:44:42.354Z,101532.67
2018-06-07T20:47:11.273Z,101537.97
2018-06-07T20:49:40.326Z,101547.22
2018-06-07T20:52:09.474Z,101547.39
2018-06-07T20:54:38.944Z,101546.36
2018-06-07T20:57:07.968Z,101544.89
2018-06-07T20:59:37.884Z,101547.05
2018-06-07T21:02:06.930Z,101544.52
2018-06-07T21:04:35.972Z,101549.98
2018-06-07T21:07:05.672Z,101555.00
2018-06-07T21:09:34.882Z,101560.19
2018-06-07T21:12:03.884Z,101564.56
2018-06-07T21:14:33.124Z,101566.87
2018-06-07T21:17:02.268Z,101562.41
2018-06-07T21:19:31.415Z,101563.99
2018-06-07T21:22:00.460Z,101564.41
2018-06-07T21:24:29.465Z,101559.91
2018-06-07T21:26:58.492Z,101557.39
2018-06-07T21:29:27.536Z,101553.34
2018-06-07T21:31:56.642Z,101555.42
2018-06-07T21:34:25.946Z,101553.52
2018-06-07T21:36:54.955Z,101559.98
2018-06-07T21:39:24.032Z,101570.25
2018-06-07T21:41:58.594Z,101563.56
2018-06-07T21:44:33.212Z,101563.81
2018-06-07T21:47:07.944Z,101558.73
2018-06-07T21:49:36.968Z,101556.00
2018-06-07T21:52:06.041Z,101553.80
2018-06-07T21:54:35.070Z,101559.36
2018-06-07T21:57:04.169Z,101556.53
2018-06-07T21:59:33.205Z,101556.91
2018-06-07T22:02:02.388Z,101554.15
2018-06-07T22:04:32.341Z,101547.86
2018-06-07T22:07:01.384Z,101544.89
2018-06-07T22:09:30.699Z,101539.66
2018-06-07T22:12:00.055Z,101541.09
2018-06-07T22:14:29.371Z,101538.71
2018-06-07T22:16:58.370Z,101535.69
2018-06-07T22:19:28.070Z,101530.88
2018-06-07T22:21:57.126Z,101528.16
2018-06-07T22:24:26.855Z,101533.01
2018-06-07T22:26:56.044Z,101536.96
2018-06-07T22:29:25.085Z,101536.34
2018-06-07T22:31:54.149Z,101539.23
2018-06-07T22:34:23.185Z,101542.72
2018-06-07T22:36:52.256Z,101555.42
2018-06-07T22:39:21.357Z,101550.62
2018-06-07T22:41:50.648Z,101544.34
2018-06-07T22:44:19.705Z,101545.01
2018-06-07T22:46:48.819Z,101541.80
2018-06-07T22:49:18.139Z,101541.30
2018-06-07T22:51:50.050Z,101539.38
2018-06-07T22:54:19.055Z,101534.37
2018-06-07T22:56:48.226Z,101539.02
2018-06-07T22:59:18.299Z,101536.55
2018-06-07T23:01:47.341Z,101533.06
2018-06-07T23:04:16.390Z,101536.55
2018-06-07T23:06:45.536Z,101533.25
2018-06-07T23:09:15.572Z,101533.77
2018-06-07T23:11:44.696Z,101532.16
2018-06-07T23:14:14.592Z,101531.05
2018-06-07T23:16:43.688Z,101517.55
2018-06-07T23:19:12.845Z,101520.09
2018-06-07T23:21:42.898Z,101516.95
2018-06-07T23:24:11.972Z,101515.91
2018-06-07T23:26:40.982Z,101510.65
2018-06-07T23:29:10.056Z,101508.13
2018-06-07T23:31:39.250Z,101511.77
2018-06-07T23:34:08.266Z,101516.33
2018-06-07T23:36:38.078Z,101510.34
2018-06-07T23:39:08.902Z,101512.42
2018-06-07T23:41:38.518Z,101508.27
2018-06-07T23:44:08.522Z,101510.04
2018-06-07T23:46:43.173Z,101506.10
2018-06-07T23:49:17.676Z,101504.05
2018-06-07T23:51:46.687Z,101506.67
2018-06-07T23:54:15.736Z,101510.20
2018-06-07T23:56:50.396Z,101505.77
2018-06-07T23:59:19.592Z,101512.56
